Nearby METAR Reports

 

KPMD - Palmdale, California, USA
Distance from station: NNE 12mi, 19km
Updated: Tue, 28-Mar-2017 7:53am PDT
Clear
Clear
 Wind from calm
Wind: Calm
Temperature: 46°F , 8°C
Dew Point: 37°F , 3°C
Humidity: 71%
Barometer: 30.14 inHg , 1020.7 hPa
Clouds: Clear
Visibility: 10 miles , 16 km
2017/03/28 14:53 KPMD 281453Z AUTO 00000KT 10SM CLR 08/03 A3014 RMK AO2 SLP201 T00830028 53008
KWJF - Lancaster/Fox, California, USA
Distance from station: N 17mi, 27km
Updated: Tue, 28-Mar-2017 7:56am PDT
Clear
Clear
 Wind from WNW
Wind: WNW 5 mph , 7 km/h
Temperature: 45°F , 7°C
Wind Chill: 42°F , 6°C
Dew Point: 36°F , 2°C
Humidity: 71%
Barometer: 30.15 inHg , 1021 hPa
Clouds: Clear
Visibility: 10 miles , 16 km
2017/03/28 14:56 KWJF 281456Z 29004KT 10SM CLR 07/02 A3015 RMK AO2 SLP213 T00670022
 
KMWS - Mount Wilson, California, USA
Distance from station: SSE 18mi, 30km
Updated: Wed, 13-May-2015 6:45am PDT
NOT Current

 Wind from S
Wind: S 3 mph , 6 km/h, Gust: 5 mph , 7 km/h
Temperature: 43°F , 6°C
Dew Point: -0°F , -18°C
Humidity: 16%
2015/05/13 13:45 KMWS 131345Z 18003G04KT 06/M18 RMK SNOW DEPTH 1.00
KWHP - La / Whiteman, California, USA
Distance from station: SW 21mi, 34km
Updated: Tue, 28-Mar-2017 8:56am PDT
Clear
Clear
 Wind from WNW
Wind: WNW 13 mph , 20 km/h, Gust: 21 mph , 33 km/h
Temperature: 64°F , 18°C
Dew Point: 25°F , -4°C
Humidity: 22%
Barometer: 30.08 inHg , 1018.6 hPa
Clouds: Clear
Visibility: 10 miles , 16 km
2017/03/28 15:56 KWHP 281556Z 30011G18KT 10SM SKC 18/M04 A3008
 
KBUR - Burbank, California, USA
Distance from station: SSW 22mi, 35km
Updated: Tue, 28-Mar-2017 7:53am PDT
Clear
Clear
 Wind from N
Wind: N 13 mph , 20 km/h
Temperature: 59°F , 15°C
Dew Point: 30°F , -1°C
Humidity: 34%
Barometer: 30.02 inHg , 1016.6 hPa
Clouds: Clear
Visibility: 10 miles , 16 km
2017/03/28 14:53 KBUR 281453Z 35011KT 10SM CLR 15/M01 A3002 RMK AO2 SLP156 T01501011 53009 $
KVNY - Van Nuys, California, USA
Distance from station: SW 25mi, 40km
Updated: Tue, 28-Mar-2017 8:51am PDT
Clear
Clear
 Wind from NNW
Wind: NNW 16 mph , 26 km/h, Gust: 25 mph , 41 km/h
Temperature: 63°F , 17°C
Dew Point: 34°F , 1°C
Humidity: 34%
Barometer: 30.04 inHg , 1017.3 hPa
Clouds: Clear
Visibility: 10 miles , 16 km
2017/03/28 15:51 KVNY 281551Z 34014G22KT 10SM CLR 17/01 A3004 RMK AO2 PK WND 35026/1452 SLP169 T01670006
 
KEDW - Edwards Afb, California, USA
Distance from station: NNE 33mi, 53km
Updated: Tue, 28-Mar-2017 7:58am PDT
Few Clouds
Few Clouds
 Wind from SW
Wind: SW 3 mph , 6 km/h
Temperature: 41°F , 5°C
Dew Point: 36°F , 2°C
Humidity: 81%
Barometer: 30.12 inHg , 1020 hPa
Clouds: Few Clouds
Visibility: 90 miles , 144 km
Cloud details: Few Clouds 25000 ft
2017/03/28 14:58 KEDW 281458Z 22003KT 90SM FEW250 05/02 A3012 RMK AO2A SLP200 T00530019 53012
KSMO - Santa Monica, California, USA
Distance from station: SSW 35mi, 57km
Updated: Tue, 28-Mar-2017 8:51am PDT
Clear
Clear
 Wind from NNW
Wind: NNW 12 mph , 19 km/h, Gust: 23 mph , 37 km/h
Temperature: 64°F , 18°C
Dew Point: 32°F , 0°C
Humidity: 30%
Barometer: 30.03 inHg , 1016.9 hPa
Clouds: Clear
Visibility: 10 miles , 16 km
2017/03/28 15:51 KSMO 281551Z 34010G20KT 290V010 10SM CLR 18/00 A3003 RMK AO2 SLP167 T01830000 $
 
KLAX - Los Angeles, California, USA
Distance from station: SSW 39mi, 63km
Updated: Tue, 28-Mar-2017 7:53am PDT
Few Clouds
Few Clouds
 Wind from SE
Wind: SE 6 mph , 9 km/h
Temperature: 57°F , 14°C
Dew Point: 50°F , 10°C
Humidity: 77%
Barometer: 30.03 inHg , 1016.9 hPa
Clouds: Few Clouds
Visibility: 10 miles , 16 km
Cloud details: Few Clouds 7000 ft
2017/03/28 14:53 KLAX 281453Z 13005KT 10SM FEW070 14/10 A3003 RMK AO2 SLP166 T01390100 53015
KMHV - Mojave, California, USA
Distance from station: N 41mi, 66km
Updated: Tue, 28-Mar-2017 8:20am PDT
Clear
Clear
 Wind from calm
Wind: Calm
Temperature: 50°F , 10°C
Dew Point: 34°F , 1°C
Humidity: 54%
Barometer: 30.14 inHg , 1020.7 hPa
Clouds: Clear
Visibility: 10 miles , 16 km
2017/03/28 15:20 KMHV 281520Z AUTO 00000KT 10SM CLR 10/01 A3014 RMK A01
 
KFUL - Fullerton, California, USA
Distance from station: SSE 44mi, 70km
Updated: Tue, 28-Mar-2017 7:53am PDT
Clear
Clear
 Wind from calm
Wind: Calm
Temperature: 55°F , 13°C
Dew Point: 48°F , 9°C
Humidity: 77%
Barometer: 30.02 inHg , 1016.6 hPa
Clouds: Clear
Visibility: 10 miles , 16 km
2017/03/28 14:53 KFUL 281453Z 00000KT 10SM CLR 13/09 A3002 RMK AO2 SLP166 T01280094 53011
KONT - Ontario, California, USA
Distance from station: SE 45mi, 72km
Updated: Tue, 28-Mar-2017 7:53am PDT
Clear
Clear
 Wind from calm
Wind: Calm
Temperature: 54°F , 12°C
Dew Point: 43°F , 6°C
Humidity: 67%
Barometer: 30.03 inHg , 1016.9 hPa
Clouds: Clear
Visibility: 10 miles , 16 km
2017/03/28 14:53 KONT 281453Z 00000KT 10SM CLR 12/06 A3003 RMK AO2 SLP166 T01220056 53015
 
KLGB - Long Beach, California, USA
Distance from station: S 46mi, 74km
Updated: Tue, 28-Mar-2017 6:53am PDT
NOT Current
Clear
Clear
 Wind from calm
Wind: Calm
Temperature: 54°F , 12°C
Dew Point: 46°F , 8°C
Humidity: 77%
Barometer: 30.01 inHg , 1016.3 hPa
Clouds: Clear
Visibility: 10 miles , 16 km
2017/03/28 13:53 KLGB 281353Z 00000KT 10SM CLR 12/08 A3001 RMK AO2 SLP161 T01170083
KVCV - Victorville, California, USA
Distance from station: E 46mi, 74km
Updated: Tue, 28-Mar-2017 8:35am PDT
Clear
Clear
 Wind from calm
Wind: Calm
Temperature: 48°F , 9°C
Dew Point: 34°F , 1°C
Humidity: 58%
Barometer: 30.14 inHg , 1020.7 hPa
Clouds: Clear
Visibility: 10 miles , 16 km
2017/03/28 15:35 KVCV 281535Z AUTO 00000KT 10SM CLR 09/01 A3014 RMK AO2
 
KTSP - Tehachapi, California, USA
Distance from station: NNW 48mi, 77km
Updated: Tue, 28-Mar-2017 8:35am PDT
Partly cloudy
Partly cloudy
 Wind from WNW
Wind: WNW 6 mph , 9 km/h
Temperature: 41°F , 5°C
Wind Chill: 37°F , 3°C
Dew Point: 37°F , 3°C
Humidity: 87%
Barometer: 30.19 inHg , 1022.4 hPa
Clouds: Partly cloudy
Visibility: 9 miles , 14 km
Cloud details: Partly cloudy 2000 ft
2017/03/28 15:35 KTSP 281535Z AUTO 30005KT 9SM SCT020 05/03 A3019 RMK AO2